Time;durP1;ratioP1;P1;durP2;ratioP2;P2;SDS_P1;SDS_P2;PMS_P1;PMS_P2;Temp;Humidity;BMP_temperature;BMP_pressure;BME280_temperature;BME280_humidity;BME280_pressure;Samples;Min_cycle;Max_cycle;Signal;HPM_P1;HPM_P2
2024/02/11 00:01:21;;;;;;;;;;;17.80;43.40;;;;;;1544569;76;782;-72
2024/02/11 00:03:27;;;;;;;;;;;17.80;43.40;;;;;;1549139;75;1153;-71
2024/02/11 00:05:27;;;;;;;;;;;17.80;43.40;;;;;;1543037;76;1577;-71
2024/02/11 00:07:29;;;;;;;;;;;17.80;43.40;;;;;;1545511;76;1560;-71
2024/02/11 00:09:31;;;;;;;;;;;17.80;43.40;;;;;;1554300;75;739;-72
2024/02/11 00:11:33;;;;;;;;;;;17.80;43.50;;;;;;1546407;76;754;-69
2024/02/11 00:13:36;;;;;;;;;;;17.80;43.40;;;;;;1552368;76;1185;-70
2024/02/11 00:15:39;;;;;;;;;;;17.80;43.40;;;;;;1553901;75;1915;-69
2024/02/11 00:17:43;;;;;;;;;;;17.80;43.40;;;;;;1544118;75;551;-71
2024/02/11 00:19:44;;;;;;;;;;;17.80;43.40;;;;;;1543447;76;1159;-71
2024/02/11 00:21:47;;;;;;;;;;;17.80;43.40;;;;;;1553750;74;762;-70
2024/02/11 00:23:49;;;;;;;;;;;17.80;43.40;;;;;;1548277;75;1201;-71
2024/02/11 00:25:54;;;;;;;;;;;17.80;43.40;;;;;;1539966;76;672;-71
2024/02/11 00:27:58;;;;;;;;;;;17.80;43.40;;;;;;1548757;75;684;-71
2024/02/11 00:30:01;;;;;;;;;;;17.80;43.40;;;;;;1540663;75;1699;-71
2024/02/11 00:32:03;;;;;;;;;;;17.80;43.40;;;;;;1541822;76;732;-71
2024/02/11 00:34:05;;;;;;;;;;;17.80;43.40;;;;;;1546884;76;1119;-70
2024/02/11 00:36:07;;;;;;;;;;;17.80;43.40;;;;;;1546773;75;1918;-71
2024/02/11 00:38:09;;;;;;;;;;;17.80;43.40;;;;;;1540463;76;748;-70
2024/02/11 00:40:12;;;;;;;;;;;17.80;43.40;;;;;;1545738;75;704;-70
2024/02/11 00:42:19;;;;;;;;;;;17.80;43.40;;;;;;1549179;75;747;-71
2024/02/11 00:44:18;;;;;;;;;;;17.80;43.40;;;;;;1553009;75;1194;-71
2024/02/11 00:46:20;;;;;;;;;;;17.80;43.40;;;;;;1549162;75;723;-71
2024/02/11 00:48:22;;;;;;;;;;;17.80;43.40;;;;;;1550873;75;737;-71
2024/02/11 00:50:24;;;;;;;;;;;17.80;43.40;;;;;;1551957;75;726;-69
2024/02/11 00:52:26;;;;;;;;;;;17.80;43.40;;;;;;1557897;75;732;-69
2024/02/11 00:54:28;;;;;;;;;;;17.80;43.40;;;;;;1553237;76;1138;-71
2024/02/11 00:56:31;;;;;;;;;;;17.80;43.40;;;;;;1551683;76;1940;-71
2024/02/11 00:58:33;;;;;;;;;;;17.80;43.40;;;;;;1551024;75;707;-71
2024/02/11 01:00:35;;;;;;;;;;;17.80;43.40;;;;;;1534962;76;711;-69
2024/02/11 01:02:37;;;;;;;;;;;17.80;43.40;;;;;;1545649;76;587;-71
2024/02/11 01:04:39;;;;;;;;;;;17.80;43.40;;;;;;1549799;76;744;-70
2024/02/11 01:06:40;;;;;;;;;;;17.80;43.40;;;;;;1548980;76;770;-71
2024/02/11 01:08:42;;;;;;;;;;;17.80;43.40;;;;;;1547649;75;1595;-69
2024/02/11 01:10:44;;;;;;;;;;;17.80;43.40;;;;;;1550060;75;761;-70
2024/02/11 01:12:46;;;;;;;;;;;17.80;43.40;;;;;;1547007;74;1135;-71
2024/02/11 01:14:48;;;;;;;;;;;17.80;43.40;;;;;;1539344;75;635;-69
2024/02/11 01:16:50;;;;;;;;;;;17.80;43.40;;;;;;1549310;75;1941;-72
2024/02/11 01:18:52;;;;;;;;;;;17.80;43.40;;;;;;1544552;75;705;-70
2024/02/11 01:20:55;;;;;;;;;;;17.80;43.40;;;;;;1543940;76;773;-70
2024/02/11 01:22:57;;;;;;;;;;;17.80;43.40;;;;;;1558770;75;1170;-70
2024/02/11 01:24:59;;;;;;;;;;;17.80;43.40;;;;;;1552886;76;684;-71
2024/02/11 01:27:01;;;;;;;;;;;17.80;43.40;;;;;;1545749;76;672;-70
2024/02/11 01:29:04;;;;;;;;;;;17.80;43.40;;;;;;1549504;76;729;-68
2024/02/11 01:31:06;;;;;;;;;;;17.80;43.40;;;;;;1544053;76;554;-70
2024/02/11 01:33:09;;;;;;;;;;;17.80;43.40;;;;;;1548110;76;1151;-70
2024/02/11 01:35:12;;;;;;;;;;;17.80;43.40;;;;;;1551334;75;650;-71
2024/02/11 01:37:14;;;;;;;;;;;17.80;43.40;;;;;;1551296;76;1905;-71
2024/02/11 01:39:16;;;;;;;;;;;17.80;43.40;;;;;;1539813;76;724;-69
2024/02/11 01:41:18;;;;;;;;;;;17.80;43.40;;;;;;1542873;76;726;-71
2024/02/11 01:43:19;;;;;;;;;;;17.80;43.40;;;;;;1556866;75;1176;-71
2024/02/11 01:45:21;;;;;;;;;;;17.80;43.40;;;;;;1553544;75;679;-70
2024/02/11 01:47:23;;;;;;;;;;;17.80;43.40;;;;;;1544077;76;716;-70
2024/02/11 01:49:25;;;;;;;;;;;17.80;43.30;;;;;;1548294;76;708;-70
2024/02/11 01:51:29;;;;;;;;;;;17.80;43.40;;;;;;1543520;76;666;-71
2024/02/11 01:53:30;;;;;;;;;;;17.80;43.40;;;;;;1546491;75;1575;-70
2024/02/11 01:55:33;;;;;;;;;;;17.80;43.40;;;;;;1549691;76;794;-70
2024/02/11 01:57:34;;;;;;;;;;;17.80;43.40;;;;;;1547175;75;1907;-70
2024/02/11 01:59:38;;;;;;;;;;;18.10;43.60;;;;;;1541155;75;648;-71
2024/02/11 02:01:40;;;;;;;;;;;17.80;43.40;;;;;;1546464;76;613;-70
2024/02/11 02:03:42;;;;;;;;;;;17.80;43.40;;;;;;1543341;75;1154;-68
2024/02/11 02:05:44;;;;;;;;;;;17.80;43.30;;;;;;1555391;76;590;-71
2024/02/11 02:07:45;;;;;;;;;;;17.80;43.40;;;;;;1546087;76;1429;-71
2024/02/11 02:09:48;;;;;;;;;;;17.80;43.40;;;;;;1551536;76;747;-71
2024/02/11 02:11:50;;;;;;;;;;;17.80;43.40;;;;;;1546017;75;785;-71
2024/02/11 02:13:52;;;;;;;;;;;17.80;43.40;;;;;;1548294;75;1106;-69
2024/02/11 02:15:54;;;;;;;;;;;17.80;43.40;;;;;;1548163;76;744;-70
2024/02/11 02:17:56;;;;;;;;;;;17.80;43.30;;;;;;1546376;75;1936;-70
2024/02/11 02:19:58;;;;;;;;;;;17.80;43.40;;;;;;1546771;76;752;-70
2024/02/11 02:22:00;;;;;;;;;;;17.80;43.40;;;;;;1543049;75;791;-69
2024/02/11 02:24:02;;;;;;;;;;;17.80;43.40;;;;;;1553533;75;1169;-71
2024/02/11 02:26:09;;;;;;;;;;;17.90;43.50;;;;;;1552048;75;719;-71
2024/02/11 02:28:08;;;;;;;;;;;17.80;43.40;;;;;;1546754;75;1006;-71
2024/02/11 02:30:10;;;;;;;;;;;17.80;43.40;;;;;;1534987;76;695;-71
2024/02/11 02:32:12;;;;;;;;;;;17.80;43.40;;;;;;1540661;75;791;-70
2024/02/11 02:34:14;;;;;;;;;;;17.80;43.40;;;;;;1542360;76;1103;-70
2024/02/11 02:36:17;;;;;;;;;;;17.90;43.50;;;;;;1553938;75;1927;-71
2024/02/11 02:38:19;;;;;;;;;;;17.80;43.40;;;;;;1542307;76;689;-71
2024/02/11 02:40:26;;;;;;;;;;;17.80;43.40;;;;;;1551156;76;668;-70
2024/02/11 02:42:28;;;;;;;;;;;17.80;43.40;;;;;;1550703;75;1434;-71
2024/02/11 02:44:30;;;;;;;;;;;17.90;43.50;;;;;;1542720;76;1155;-71
2024/02/11 02:46:32;;;;;;;;;;;17.80;43.40;;;;;;1545151;76;669;-71
2024/02/11 02:48:34;;;;;;;;;;;17.80;43.40;;;;;;1543574;76;665;-70
2024/02/11 02:50:36;;;;;;;;;;;17.80;43.40;;;;;;1544922;76;714;-70
2024/02/11 02:52:38;;;;;;;;;;;17.80;43.40;;;;;;1542351;76;1149;-69
2024/02/11 02:54:43;;;;;;;;;;;17.80;43.40;;;;;;1546871;76;743;-71
2024/02/11 02:56:43;;;;;;;;;;;17.80;43.40;;;;;;1553644;76;1923;-70
2024/02/11 02:58:45;;;;;;;;;;;17.80;43.40;;;;;;1552887;75;542;-70
2024/02/11 03:00:47;;;;;;;;;;;17.80;43.40;;;;;;1554556;76;665;-71
2024/02/11 03:02:52;;;;;;;;;;;17.90;43.50;;;;;;1546282;76;1120;-69
2024/02/11 03:04:54;;;;;;;;;;;17.80;43.40;;;;;;1544999;75;1026;-71
2024/02/11 03:06:56;;;;;;;;;;;17.80;43.40;;;;;;1549270;75;1465;-70
2024/02/11 03:08:58;;;;;;;;;;;17.80;43.40;;;;;;1547891;75;709;-71
2024/02/11 03:11:00;;;;;;;;;;;17.80;43.40;;;;;;1547299;76;667;-71
2024/02/11 03:13:01;;;;;;;;;;;17.80;43.40;;;;;;1549652;76;1115;-70
2024/02/11 03:15:07;;;;;;;;;;;17.80;43.40;;;;;;1552936;76;728;-70
2024/02/11 03:17:09;;;;;;;;;;;17.80;43.40;;;;;;1550131;75;1913;-71
2024/02/11 03:19:13;;;;;;;;;;;17.80;43.40;;;;;;1545503;76;693;-71
2024/02/11 03:21:17;;;;;;;;;;;17.80;43.40;;;;;;1545087;75;1473;-70
2024/02/11 03:23:18;;;;;;;;;;;17.80;43.40;;;;;;1545492;76;1152;-68
2024/02/11 03:25:20;;;;;;;;;;;17.80;43.40;;;;;;1547073;76;706;-69
2024/02/11 03:27:23;;;;;;;;;;;17.80;43.50;;;;;;1555089;75;786;-70
2024/02/11 03:29:25;;;;;;;;;;;17.80;43.40;;;;;;1544819;76;750;-69
2024/02/11 03:31:27;;;;;;;;;;;17.80;43.40;;;;;;1545945;76;701;-69
2024/02/11 03:33:30;;;;;;;;;;;17.80;43.40;;;;;;1546901;75;1186;-69
2024/02/11 03:35:32;;;;;;;;;;;17.80;43.40;;;;;;1544082;75;967;-70
2024/02/11 03:37:34;;;;;;;;;;;17.90;43.60;;;;;;1545795;75;1921;-69
2024/02/11 03:39:36;;;;;;;;;;;17.80;43.40;;;;;;1543181;75;732;-68
2024/02/11 03:41:37;;;;;;;;;;;17.80;43.40;;;;;;1548207;75;665;-69
2024/02/11 03:43:39;;;;;;;;;;;17.80;43.40;;;;;;1551676;75;1113;-68
2024/02/11 03:45:41;;;;;;;;;;;17.80;43.40;;;;;;1539913;75;723;-69
2024/02/11 03:47:43;;;;;;;;;;;18.10;43.70;;;;;;1544555;76;698;-70
2024/02/11 03:49:45;;;;;;;;;;;17.80;43.40;;;;;;1543285;75;674;-70
2024/02/11 03:51:48;;;;;;;;;;;17.80;43.40;;;;;;1549414;76;687;-70
2024/02/11 03:53:50;;;;;;;;;;;17.80;43.50;;;;;;1551752;75;1138;-70
2024/02/11 03:55:52;;;;;;;;;;;17.80;43.50;;;;;;1548691;75;767;-69
2024/02/11 03:57:54;;;;;;;;;;;17.80;43.40;;;;;;1552644;76;1946;-70
2024/02/11 03:59:56;;;;;;;;;;;17.80;43.50;;;;;;1544058;75;683;-68
2024/02/11 04:02:01;;;;;;;;;;;17.80;43.40;;;;;;1543366;75;580;-70
2024/02/11 04:04:02;;;;;;;;;;;17.80;43.40;;;;;;1543218;76;1650;-70
2024/02/11 04:06:04;;;;;;;;;;;17.80;43.40;;;;;;1549123;75;721;-71
2024/02/11 04:08:08;;;;;;;;;;;17.80;43.50;;;;;;1555955;75;1372;-67
2024/02/11 04:10:17;;;;;;;;;;;17.80;43.40;;;;;;1553498;75;691;-70
2024/02/11 04:12:13;;;;;;;;;;;17.80;43.40;;;;;;1539631;75;1590;-71
2024/02/11 04:14:15;;;;;;;;;;;17.80;43.40;;;;;;1549753;75;1131;-71
2024/02/11 04:16:17;;;;;;;;;;;17.80;43.50;;;;;;1548030;75;689;-70
2024/02/11 04:18:21;;;;;;;;;;;17.90;43.60;;;;;;1536392;75;1937;-70
2024/02/11 04:20:31;;;;;;;;;;;17.80;43.40;;;;;;1542299;75;755;-71
2024/02/11 04:22:29;;;;;;;;;;;17.80;43.40;;;;;;1544053;76;1025;-70
2024/02/11 04:24:31;;;;;;;;;;;17.80;43.40;;;;;;1545829;76;1130;-71
2024/02/11 04:26:33;;;;;;;;;;;17.80;43.40;;;;;;1545868;75;738;-70
2024/02/11 04:28:38;;;;;;;;;;;17.80;43.40;;;;;;1549383;75;793;-70
2024/02/11 04:30:42;;;;;;;;;;;17.80;43.40;;;;;;1539466;75;687;-71
2024/02/11 04:32:43;;;;;;;;;;;17.80;43.40;;;;;;1549067;76;1135;-70
2024/02/11 04:34:45;;;;;;;;;;;17.80;43.40;;;;;;1553904;76;663;-70
2024/02/11 04:36:48;;;;;;;;;;;17.80;43.40;;;;;;1550716;76;699;-71
2024/02/11 04:38:50;;;;;;;;;;;17.80;43.40;;;;;;1550537;76;1939;-70
2024/02/11 04:40:52;;;;;;;;;;;17.80;43.40;;;;;;1545371;75;790;-71
2024/02/11 04:42:56;;;;;;;;;;;17.80;43.40;;;;;;1544137;75;1127;-71
2024/02/11 04:44:58;;;;;;;;;;;17.80;43.40;;;;;;1554344;75;609;-71
2024/02/11 04:47:00;;;;;;;;;;;17.80;43.50;;;;;;1542557;76;804;-71
2024/02/11 04:49:02;;;;;;;;;;;17.80;43.40;;;;;;1542544;75;749;-70
2024/02/11 04:51:04;;;;;;;;;;;17.80;43.40;;;;;;1545898;76;587;-71
2024/02/11 04:53:08;;;;;;;;;;;17.80;43.40;;;;;;1548302;75;1199;-69
2024/02/11 04:55:11;;;;;;;;;;;17.80;43.40;;;;;;1553762;75;612;-70
2024/02/11 04:57:16;;;;;;;;;;;17.80;43.40;;;;;;1548135;76;1951;-69
2024/02/11 04:59:17;;;;;;;;;;;17.90;43.50;;;;;;1545019;76;999;-69
2024/02/11 05:01:20;;;;;;;;;;;17.80;43.40;;;;;;1547675;75;611;-71
2024/02/11 05:03:24;;;;;;;;;;;17.80;43.40;;;;;;1543584;75;1151;-69
2024/02/11 05:05:31;;;;;;;;;;;17.80;43.40;;;;;;1543985;75;687;-70
2024/02/11 05:07:34;;;;;;;;;;;17.80;43.30;;;;;;1546503;76;1366;-70
2024/02/11 05:09:37;;;;;;;;;;;17.80;43.40;;;;;;1553303;75;688;-71
2024/02/11 05:11:39;;;;;;;;;;;17.80;43.40;;;;;;1539843;75;631;-70
2024/02/11 05:13:43;;;;;;;;;;;17.80;43.40;;;;;;1552742;76;1115;-70
2024/02/11 05:15:48;;;;;;;;;;;17.80;43.30;;;;;;1544851;76;1410;-68
2024/02/11 05:17:54;;;;;;;;;;;17.90;43.50;;;;;;1547373;75;1910;-70
2024/02/11 05:19:52;;;;;;;;;;;17.80;43.40;;;;;;1538719;75;1543;-71
2024/02/11 05:21:54;;;;;;;;;;;17.80;43.40;;;;;;1548909;76;776;-67
2024/02/11 05:23:56;;;;;;;;;;;17.80;43.30;;;;;;1543571;75;1125;-69
2024/02/11 05:25:59;;;;;;;;;;;17.90;43.50;;;;;;1548730;75;734;-70
2024/02/11 05:28:02;;;;;;;;;;;17.80;43.30;;;;;;1546739;75;787;-71
2024/02/11 05:30:08;;;;;;;;;;;17.80;43.30;;;;;;1549203;75;657;-69
2024/02/11 05:32:08;;;;;;;;;;;17.80;43.30;;;;;;1552648;76;1044;-71
2024/02/11 05:34:10;;;;;;;;;;;17.80;43.30;;;;;;1556635;76;1162;-71
2024/02/11 05:36:13;;;;;;;;;;;17.80;43.30;;;;;;1543587;75;608;-70
2024/02/11 05:38:15;;;;;;;;;;;17.80;43.20;;;;;;1550430;75;1907;-69
2024/02/11 05:40:17;;;;;;;;;;;17.80;43.30;;;;;;1541839;75;672;-69
2024/02/11 05:42:19;;;;;;;;;;;17.80;43.30;;;;;;1556354;75;648;-70
2024/02/11 05:44:20;;;;;;;;;;;17.80;43.30;;;;;;1556413;75;1095;-71
2024/02/11 05:46:22;;;;;;;;;;;17.80;43.30;;;;;;1542889;76;700;-68
2024/02/11 05:48:24;;;;;;;;;;;17.80;43.30;;;;;;1550673;75;810;-71
2024/02/11 05:50:29;;;;;;;;;;;17.80;43.30;;;;;;1552534;75;689;-71
2024/02/11 05:52:31;;;;;;;;;;;17.80;43.30;;;;;;1554355;75;745;-71
2024/02/11 05:54:35;;;;;;;;;;;17.80;43.20;;;;;;1545099;75;1139;-71
2024/02/11 05:56:36;;;;;;;;;;;17.80;43.30;;;;;;1542672;76;1172;-70
2024/02/11 05:58:39;;;;;;;;;;;17.80;43.30;;;;;;1543837;76;1908;-69
2024/02/11 06:00:42;;;;;;;;;;;17.80;43.30;;;;;;1552674;76;586;-70
2024/02/11 06:02:46;;;;;;;;;;;17.80;43.30;;;;;;1548660;75;1638;-70
2024/02/11 06:04:49;;;;;;;;;;;17.80;43.20;;;;;;1550474;75;916;-71
2024/02/11 06:06:51;;;;;;;;;;;17.80;43.20;;;;;;1550887;76;1532;-71
2024/02/11 06:08:54;;;;;;;;;;;17.80;43.30;;;;;;1543999;75;786;-70
2024/02/11 06:10:57;;;;;;;;;;;17.80;43.20;;;;;;1546886;76;591;-71
2024/02/11 06:13:01;;;;;;;;;;;17.80;43.20;;;;;;1545533;75;1143;-69
2024/02/11 06:15:04;;;;;;;;;;;17.80;43.30;;;;;;1550856;75;1622;-71
2024/02/11 06:17:06;;;;;;;;;;;17.80;43.30;;;;;;1543219;75;747;-71
2024/02/11 06:19:08;;;;;;;;;;;17.80;43.20;;;;;;1541932;75;1915;-70
2024/02/11 06:21:10;;;;;;;;;;;17.80;43.20;;;;;;1553706;75;756;-71
2024/02/11 06:23:12;;;;;;;;;;;17.80;43.20;;;;;;1549911;75;1130;-71
2024/02/11 06:25:16;;;;;;;;;;;17.80;43.20;;;;;;1544481;75;739;-71
2024/02/11 06:27:18;;;;;;;;;;;17.80;43.20;;;;;;1545748;75;718;-70
2024/02/11 06:29:20;;;;;;;;;;;17.80;43.20;;;;;;1548266;76;797;-70
2024/02/11 06:31:22;;;;;;;;;;;17.80;43.20;;;;;;1553367;75;736;-70
2024/02/11 06:33:23;;;;;;;;;;;17.80;43.20;;;;;;1547833;75;1139;-70
2024/02/11 06:35:27;;;;;;;;;;;17.80;43.30;;;;;;1546299;76;707;-71
2024/02/11 06:37:31;;;;;;;;;;;17.80;43.20;;;;;;1546996;76;731;-70
2024/02/11 06:39:32;;;;;;;;;;;17.80;43.20;;;;;;1545287;75;1935;-71
2024/02/11 06:41:35;;;;;;;;;;;17.80;43.20;;;;;;1547736;75;731;-70
2024/02/11 06:43:37;;;;;;;;;;;17.80;43.20;;;;;;1542245;75;1165;-71
2024/02/11 06:45:45;;;;;;;;;;;17.80;43.20;;;;;;1520153;77;752;-70
2024/02/11 06:47:45;;;;;;;;;;;17.80;43.20;;;;;;1555476;75;1201;-71
2024/02/11 06:49:47;;;;;;;;;;;17.80;43.20;;;;;;1546097;76;729;-70
2024/02/11 06:51:51;;;;;;;;;;;17.80;43.20;;;;;;1553517;75;684;-70
2024/02/11 06:53:52;;;;;;;;;;;17.80;43.20;;;;;;1543488;76;1180;-70
2024/02/11 06:55:54;;;;;;;;;;;17.80;43.20;;;;;;1548420;76;736;-70
2024/02/11 06:57:56;;;;;;;;;;;17.80;43.20;;;;;;1550967;76;1947;-70
2024/02/11 06:59:59;;;;;;;;;;;17.80;43.20;;;;;;1547582;76;805;-72
2024/02/11 07:02:01;;;;;;;;;;;17.80;43.20;;;;;;1543702;75;671;-71
2024/02/11 07:04:04;;;;;;;;;;;17.80;43.20;;;;;;1542459;76;1153;-70
2024/02/11 07:06:06;;;;;;;;;;;17.80;43.20;;;;;;1543622;76;715;-71
2024/02/11 07:08:08;;;;;;;;;;;17.80;43.20;;;;;;1550111;75;1535;-69
2024/02/11 07:10:10;;;;;;;;;;;17.80;43.10;;;;;;1543736;75;629;-71
2024/02/11 07:12:12;;;;;;;;;;;17.80;43.20;;;;;;1552505;76;707;-69
2024/02/11 07:14:15;;;;;;;;;;;17.80;43.10;;;;;;1543847;75;1129;-71
2024/02/11 07:16:17;;;;;;;;;;;17.70;43.10;;;;;;1545123;76;871;-71
2024/02/11 07:18:20;;;;;;;;;;;17.80;43.10;;;;;;1551184;76;1896;-71
2024/02/11 07:20:22;;;;;;;;;;;17.80;43.20;;;;;;1543178;75;818;-71
2024/02/11 07:22:29;;;;;;;;;;;17.80;43.10;;;;;;1548409;75;669;-69
2024/02/11 07:24:28;;;;;;;;;;;17.80;43.10;;;;;;1545094;75;1103;-70
2024/02/11 07:26:30;;;;;;;;;;;17.80;43.20;;;;;;1550294;75;794;-71
2024/02/11 07:28:33;;;;;;;;;;;17.80;43.10;;;;;;1544068;75;998;-70
2024/02/11 07:30:35;;;;;;;;;;;17.80;43.10;;;;;;1548662;75;796;-71
2024/02/11 07:32:37;;;;;;;;;;;17.80;43.10;;;;;;1557066;75;723;-71
2024/02/11 07:34:39;;;;;;;;;;;17.70;43.20;;;;;;1552233;76;1200;-68
2024/02/11 07:36:42;;;;;;;;;;;17.70;43.20;;;;;;1544155;76;712;-70
2024/02/11 07:38:44;;;;;;;;;;;17.80;43.10;;;;;;1544274;76;1908;-69
2024/02/11 07:40:49;;;;;;;;;;;17.80;43.10;;;;;;1549234;75;774;-71
2024/02/11 07:42:50;;;;;;;;;;;17.80;43.10;;;;;;1546335;75;1154;-71
2024/02/11 07:44:52;;;;;;;;;;;17.80;43.10;;;;;;1550724;75;600;-69
2024/02/11 07:46:53;;;;;;;;;;;17.80;43.10;;;;;;1550281;76;657;-69
2024/02/11 07:49:02;;;;;;;;;;;17.80;43.10;;;;;;1548538;76;893;-69
2024/02/11 07:50:59;;;;;;;;;;;17.80;43.10;;;;;;1545387;75;1121;-70
2024/02/11 07:53:04;;;;;;;;;;;17.80;43.10;;;;;;1551534;75;1130;-69
2024/02/11 07:55:06;;;;;;;;;;;17.80;43.10;;;;;;1549971;76;1139;-71
2024/02/11 07:57:08;;;;;;;;;;;17.80;43.10;;;;;;1547269;76;706;-70
2024/02/11 07:59:14;;;;;;;;;;;17.80;43.10;;;;;;1549134;75;1937;-71
2024/02/11 08:01:13;;;;;;;;;;;17.80;43.10;;;;;;1549811;75;1520;-70
2024/02/11 08:03:15;;;;;;;;;;;17.80;43.10;;;;;;1545052;76;1111;-69
2024/02/11 08:05:17;;;;;;;;;;;17.80;43.10;;;;;;1549145;76;690;-70
2024/02/11 08:07:19;;;;;;;;;;;17.80;43.10;;;;;;1555555;75;1554;-70
2024/02/11 08:09:21;;;;;;;;;;;17.80;43.10;;;;;;1560301;75;703;-71
2024/02/11 08:11:23;;;;;;;;;;;17.80;43.10;;;;;;1542978;75;734;-70
2024/02/11 08:13:28;;;;;;;;;;;17.70;43.10;;;;;;1546487;75;1155;-70
2024/02/11 08:15:30;;;;;;;;;;;17.90;43.30;;;;;;1547017;75;789;-71
2024/02/11 08:17:32;;;;;;;;;;;17.80;43.10;;;;;;1541045;75;687;-71
2024/02/11 08:19:34;;;;;;;;;;;17.80;43.10;;;;;;1545774;75;1944;-69
2024/02/11 08:21:36;;;;;;;;;;;17.80;43.10;;;;;;1543961;76;893;-69
2024/02/11 08:23:38;;;;;;;;;;;17.80;43.10;;;;;;1548596;75;1162;-70
2024/02/11 08:25:40;;;;;;;;;;;17.80;43.10;;;;;;1551073;75;821;-68
2024/02/11 08:27:42;;;;;;;;;;;17.80;43.10;;;;;;1551454;76;658;-69
2024/02/11 08:29:49;;;;;;;;;;;17.80;43.10;;;;;;1538898;75;773;-69
2024/02/11 08:31:48;;;;;;;;;;;17.70;43.10;;;;;;1545606;76;1114;-70
2024/02/11 08:33:50;;;;;;;;;;;17.80;43.10;;;;;;1543236;76;1159;-68
2024/02/11 08:35:52;;;;;;;;;;;17.70;43.10;;;;;;1551561;75;750;-69
2024/02/11 08:37:56;;;;;;;;;;;17.80;43.10;;;;;;1545073;75;691;-70
2024/02/11 08:39:58;;;;;;;;;;;17.80;43.10;;;;;;1546073;75;1917;-70
2024/02/11 08:42:05;;;;;;;;;;;17.80;43.10;;;;;;1547596;75;700;-70
2024/02/11 08:44:03;;;;;;;;;;;17.80;43.10;;;;;;1551919;76;1113;-69
2024/02/11 08:46:05;;;;;;;;;;;17.70;43.10;;;;;;1547621;76;720;-70
2024/02/11 08:48:07;;;;;;;;;;;17.80;43.10;;;;;;1553022;76;768;-70
2024/02/11 08:50:10;;;;;;;;;;;17.80;43.10;;;;;;1549292;76;668;-71
2024/02/11 08:52:13;;;;;;;;;;;17.70;43.10;;;;;;1548174;75;729;-70
2024/02/11 08:54:14;;;;;;;;;;;17.70;43.10;;;;;;1548331;76;1136;-70
2024/02/11 08:56:17;;;;;;;;;;;17.80;43.10;;;;;;1550390;76;741;-70
2024/02/11 08:58:19;;;;;;;;;;;17.70;43.10;;;;;;1545395;76;707;-74
2024/02/11 09:00:22;;;;;;;;;;;17.70;43.10;;;;;;1552608;76;1935;-70
2024/02/11 09:02:26;;;;;;;;;;;17.80;43.10;;;;;;1544099;76;607;-70
2024/02/11 09:04:28;;;;;;;;;;;17.80;43.10;;;;;;1552185;76;1068;-70
2024/02/11 09:06:30;;;;;;;;;;;17.80;43.10;;;;;;1557424;75;677;-70
2024/02/11 09:08:32;;;;;;;;;;;17.80;43.10;;;;;;1540621;76;1298;-70
2024/02/11 09:10:34;;;;;;;;;;;17.80;43.10;;;;;;1548503;75;713;-70
2024/02/11 09:12:36;;;;;;;;;;;17.70;43.10;;;;;;1539379;76;729;-70
2024/02/11 09:14:39;;;;;;;;;;;17.80;43.10;;;;;;1547015;76;1194;-71
2024/02/11 09:16:41;;;;;;;;;;;17.80;43.10;;;;;;1549821;76;810;-68
2024/02/11 09:18:42;;;;;;;;;;;17.80;43.10;;;;;;1545441;75;1917;-70
2024/02/11 09:20:44;;;;;;;;;;;17.70;43.10;;;;;;1550846;75;743;-70
2024/02/11 09:22:46;;;;;;;;;;;17.80;43.10;;;;;;1549871;75;1152;-69
2024/02/11 09:24:48;;;;;;;;;;;17.80;43.10;;;;;;1539739;75;739;-70
2024/02/11 09:26:53;;;;;;;;;;;17.80;43.10;;;;;;1561301;75;836;-70
2024/02/11 09:28:56;;;;;;;;;;;17.70;43.10;;;;;;1544676;75;758;-70
2024/02/11 09:30:58;;;;;;;;;;;17.80;43.10;;;;;;1548750;75;745;-69
2024/02/11 09:33:00;;;;;;;;;;;17.80;43.10;;;;;;1536275;76;1135;-70
2024/02/11 09:35:03;;;;;;;;;;;17.80;43.10;;;;;;1538921;75;690;-69
2024/02/11 09:37:05;;;;;;;;;;;17.80;43.10;;;;;;1550665;75;750;-71
2024/02/11 09:39:10;;;;;;;;;;;17.70;43.10;;;;;;1544077;75;1910;-70
2024/02/11 09:41:11;;;;;;;;;;;17.80;43.10;;;;;;1543891;75;1644;-70
2024/02/11 09:43:12;;;;;;;;;;;17.80;43.10;;;;;;1551094;76;1127;-70
2024/02/11 09:45:17;;;;;;;;;;;17.80;43.10;;;;;;1546324;76;759;-70
2024/02/11 09:47:20;;;;;;;;;;;17.80;43.10;;;;;;1546056;75;794;-70
2024/02/11 09:49:22;;;;;;;;;;;17.80;43.10;;;;;;1555264;75;597;-69
2024/02/11 09:51:26;;;;;;;;;;;17.80;43.10;;;;;;1551135;75;739;-70
2024/02/11 09:53:28;;;;;;;;;;;17.80;43.10;;;;;;1546814;76;1206;-69
2024/02/11 09:55:30;;;;;;;;;;;17.80;43.10;;;;;;1535989;75;662;-70
2024/02/11 09:57:31;;;;;;;;;;;18.10;43.40;;;;;;1561088;75;682;-70
2024/02/11 09:59:33;;;;;;;;;;;17.80;43.10;;;;;;1545629;75;1933;-70
2024/02/11 10:01:35;;;;;;;;;;;18.00;43.20;;;;;;1553703;75;688;-70
2024/02/11 10:03:37;;;;;;;;;;;17.80;43.10;;;;;;1551078;75;1138;-70
2024/02/11 10:05:39;;;;;;;;;;;17.70;43.10;;;;;;1548702;76;817;-70
2024/02/11 10:07:44;;;;;;;;;;;17.80;43.10;;;;;;1553959;75;1454;-70
2024/02/11 10:09:47;;;;;;;;;;;17.80;43.10;;;;;;1544065;75;732;-70
2024/02/11 10:11:49;;;;;;;;;;;17.80;43.10;;;;;;1542414;75;751;-70
2024/02/11 10:13:51;;;;;;;;;;;17.80;43.10;;;;;;1549513;76;1154;-69
2024/02/11 10:15:53;;;;;;;;;;;17.80;43.10;;;;;;1544702;76;703;-70
2024/02/11 10:17:55;;;;;;;;;;;17.80;43.10;;;;;;1548836;76;663;-70
2024/02/11 10:19:59;;;;;;;;;;;17.70;43.00;;;;;;1541832;76;1904;-70
2024/02/11 10:22:00;;;;;;;;;;;17.80;43.10;;;;;;1550386;75;678;-70
2024/02/11 10:24:03;;;;;;;;;;;17.70;43.10;;;;;;1550809;75;1119;-69
2024/02/11 10:26:07;;;;;;;;;;;17.80;43.10;;;;;;1546149;76;807;-71
2024/02/11 10:28:09;;;;;;;;;;;17.70;43.10;;;;;;1547561;76;605;-71
2024/02/11 10:30:11;;;;;;;;;;;17.70;43.10;;;;;;1541895;75;688;-71
2024/02/11 10:32:13;;;;;;;;;;;17.70;43.10;;;;;;1545140;76;799;-71
2024/02/11 10:34:15;;;;;;;;;;;17.80;43.10;;;;;;1545437;75;1099;-70
2024/02/11 10:36:17;;;;;;;;;;;17.80;43.10;;;;;;1547119;76;728;-70
2024/02/11 10:38:19;;;;;;;;;;;17.80;43.10;;;;;;1540878;75;602;-68
2024/02/11 10:40:21;;;;;;;;;;;17.70;43.00;;;;;;1541417;75;1926;-71
2024/02/11 10:42:25;;;;;;;;;;;17.80;43.10;;;;;;1558640;76;752;-69
2024/02/11 10:44:27;;;;;;;;;;;17.80;43.10;;;;;;1534501;76;1118;-70
2024/02/11 10:46:29;;;;;;;;;;;17.80;43.10;;;;;;1544114;75;707;-70
2024/02/11 10:48:31;;;;;;;;;;;17.80;43.10;;;;;;1547084;75;656;-69
2024/02/11 10:50:33;;;;;;;;;;;17.80;43.10;;;;;;1550502;75;657;-71
2024/02/11 10:52:36;;;;;;;;;;;17.80;43.10;;;;;;1546804;76;806;-71
2024/02/11 10:54:41;;;;;;;;;;;17.80;43.10;;;;;;1557398;75;1181;-71
2024/02/11 10:56:43;;;;;;;;;;;17.80;43.10;;;;;;1547688;75;773;-69
2024/02/11 10:58:51;;;;;;;;;;;17.70;43.10;;;;;;1544767;76;757;-71
2024/02/11 11:00:52;;;;;;;;;;;17.80;43.10;;;;;;1544244;75;1921;-71
2024/02/11 11:03:00;;;;;;;;;;;17.80;43.10;;;;;;1548333;75;1139;-70
2024/02/11 11:05:03;;;;;;;;;;;17.80;43.10;;;;;;1554521;75;677;-69
2024/02/11 11:07:08;;;;;;;;;;;17.70;43.10;;;;;;1547707;75;1489;-69
2024/02/11 11:09:09;;;;;;;;;;;17.80;43.10;;;;;;1547356;76;1131;-70
2024/02/11 11:11:12;;;;;;;;;;;17.70;43.10;;;;;;1545005;75;583;-70
2024/02/11 11:13:15;;;;;;;;;;;17.80;43.10;;;;;;1546451;76;1091;-71
2024/02/11 11:15:24;;;;;;;;;;;17.80;43.10;;;;;;1540265;76;726;-69
2024/02/11 11:17:26;;;;;;;;;;;17.80;43.00;;;;;;1544107;75;871;-70
2024/02/11 11:19:29;;;;;;;;;;;17.70;43.10;;;;;;1546636;76;1931;-70
2024/02/11 11:21:31;;;;;;;;;;;17.70;43.10;;;;;;1547509;76;1025;-71
2024/02/11 11:23:34;;;;;;;;;;;17.80;43.10;;;;;;1548048;76;1131;-70
2024/02/11 11:25:36;;;;;;;;;;;17.80;43.10;;;;;;1523995;77;712;-70
2024/02/11 11:27:38;;;;;;;;;;;17.80;43.10;;;;;;1553707;76;804;-70
2024/02/11 11:29:40;;;;;;;;;;;17.80;43.10;;;;;;1542039;75;833;-71
2024/02/11 11:31:42;;;;;;;;;;;17.80;43.00;;;;;;1540566;75;674;-70
2024/02/11 11:33:44;;;;;;;;;;;17.80;43.10;;;;;;1557313;75;1109;-70
2024/02/11 11:35:46;;;;;;;;;;;17.70;43.10;;;;;;1560458;75;724;-70
2024/02/11 11:37:48;;;;;;;;;;;17.70;43.10;;;;;;1544831;76;717;-70
2024/02/11 11:39:54;;;;;;;;;;;17.80;43.10;;;;;;1551435;75;1918;-70
2024/02/11 11:41:53;;;;;;;;;;;17.80;43.10;;;;;;1545970;75;1604;-68
2024/02/11 11:44:02;;;;;;;;;;;17.70;43.00;;;;;;1538949;75;1146;-71
2024/02/11 11:46:04;;;;;;;;;;;17.80;43.10;;;;;;1553412;76;648;-69
2024/02/11 11:48:06;;;;;;;;;;;17.80;43.00;;;;;;1549566;75;869;-70
2024/02/11 11:50:08;;;;;;;;;;;17.80;43.10;;;;;;1541772;76;713;-70
2024/02/11 11:52:10;;;;;;;;;;;17.80;43.00;;;;;;1548955;75;682;-70
2024/02/11 11:54:12;;;;;;;;;;;17.80;43.00;;;;;;1548007;76;1175;-70
2024/02/11 11:56:16;;;;;;;;;;;17.80;43.00;;;;;;1544887;76;590;-70
2024/02/11 11:58:19;;;;;;;;;;;17.80;43.10;;;;;;1549889;75;1285;-70
2024/02/11 12:00:21;;;;;;;;;;;17.70;43.00;;;;;;1544643;75;1917;-70
2024/02/11 12:02:23;;;;;;;;;;;17.80;43.00;;;;;;1549518;75;678;-71
2024/02/11 12:04:26;;;;;;;;;;;17.80;43.10;;;;;;1552908;76;1088;-70
2024/02/11 12:06:28;;;;;;;;;;;17.70;43.00;;;;;;1547735;76;680;-70
2024/02/11 12:08:30;;;;;;;;;;;17.70;43.00;;;;;;1549176;76;1523;-71
2024/02/11 12:10:34;;;;;;;;;;;17.80;43.00;;;;;;1546774;76;727;-71